Time;durP1;ratioP1;P1;durP2;ratioP2;P2;SDS_P1;SDS_P2;PMS_P1;PMS_P2;Temp;Humidity;BMP_temperature;BMP_pressure;BME280_temperature;BME280_humidity;BME280_pressure;Samples;Min_cycle;Max_cycle;Signal;HPM_P1;HPM_P2
2023/01/01 00:01:13;;;;;;;4.05;2.47;;;15.80;79.10;;;;;;5010997;28;20603;-67
2023/01/01 00:03:39;;;;;;;6.03;2.70;;;15.90;78.50;;;;;;5009049;28;20394;-66
2023/01/01 00:06:10;;;;;;;9.63;2.78;;;15.90;78.60;;;;;;5012582;28;20021;-66
2023/01/01 00:08:36;;;;;;;6.43;2.58;;;15.90;78.40;;;;;;5001671;28;20037;-67
2023/01/01 00:11:03;;;;;;;4.50;2.55;;;15.90;77.90;;;;;;4993551;28;20119;-67
2023/01/01 00:13:30;;;;;;;6.97;2.55;;;15.90;77.20;;;;;;5014583;28;20033;-67
2023/01/01 00:15:55;;;;;;;5.43;2.28;;;15.90;77.20;;;;;;5011961;28;20040;-67
2023/01/01 00:18:21;;;;;;;7.68;2.60;;;15.90;77.20;;;;;;5008204;28;20025;-66
2023/01/01 00:20:47;;;;;;;7.05;2.67;;;15.90;77.40;;;;;;5012777;28;20022;-69
2023/01/01 00:23:13;;;;;;;7.30;2.35;;;15.80;77.10;;;;;;5004146;28;20213;-66
2023/01/01 00:25:39;;;;;;;6.57;2.95;;;15.80;77.30;;;;;;5009495;28;20030;-66
2023/01/01 00:28:06;;;;;;;5.03;2.58;;;15.80;76.60;;;;;;5005278;28;20034;-65
2023/01/01 00:30:32;;;;;;;3.90;2.20;;;15.80;76.50;;;;;;5015712;28;20438;-66
2023/01/01 00:32:58;;;;;;;7.60;2.58;;;15.80;76.70;;;;;;5015416;28;20083;-66
2023/01/01 00:35:24;;;;;;;7.55;2.53;;;15.90;76.80;;;;;;5010004;28;20433;-66
2023/01/01 00:37:50;;;;;;;3.70;2.10;;;15.90;76.00;;;;;;5015008;28;20695;-66
2023/01/01 00:40:17;;;;;;;3.15;1.75;;;15.90;76.20;;;;;;5008036;28;20422;-65
2023/01/01 00:42:43;;;;;;;4.93;1.90;;;15.80;75.50;;;;;;5009168;28;20099;-66
2023/01/01 00:45:09;;;;;;;4.38;1.98;;;15.80;75.30;;;;;;5007715;28;20030;-66
2023/01/01 00:47:35;;;;;;;4.97;2.45;;;15.80;75.60;;;;;;5001566;28;20032;-66
2023/01/01 00:50:01;;;;;;;5.43;1.90;;;15.80;75.10;;;;;;5009463;28;20442;-65
2023/01/01 00:52:27;;;;;;;5.68;1.42;;;15.80;75.40;;;;;;5014292;28;20872;-65
2023/01/01 00:54:52;;;;;;;10.65;2.15;;;15.90;75.10;;;;;;5008170;28;20133;-65
2023/01/01 00:57:18;;;;;;;8.52;2.10;;;15.80;74.50;;;;;;5009477;28;20123;-65
2023/01/01 00:59:44;;;;;;;3.50;1.67;;;15.80;74.90;;;;;;5009541;28;20257;-66
2023/01/01 01:02:09;;;;;;;7.60;2.20;;;15.80;74.50;;;;;;5011625;28;20175;-65
2023/01/01 01:04:35;;;;;;;4.82;2.47;;;15.80;74.60;;;;;;5008733;28;20134;-65
2023/01/01 01:07:01;;;;;;;5.18;1.85;;;15.80;74.40;;;;;;5009643;28;20061;-65
2023/01/01 01:09:27;;;;;;;4.95;2.30;;;15.80;74.80;;;;;;5009284;28;20042;-65
2023/01/01 01:11:52;;;;;;;7.30;2.28;;;15.80;75.10;;;;;;5017697;28;20132;-65
2023/01/01 01:14:18;;;;;;;8.55;2.85;;;15.80;74.90;;;;;;5019433;28;20033;-65
2023/01/01 01:16:44;;;;;;;8.68;2.55;;;15.80;74.20;;;;;;5015613;28;20124;-65
2023/01/01 01:19:14;;;;;;;6.75;2.85;;;15.90;73.90;;;;;;5016261;28;20073;-65
2023/01/01 01:21:40;;;;;;;6.45;2.83;;;15.90;74.00;;;;;;5017081;28;20289;-65
2023/01/01 01:24:06;;;;;;;5.88;2.65;;;15.80;74.60;;;;;;5009278;28;20036;-65
2023/01/01 01:26:34;;;;;;;10.30;3.33;;;15.80;74.30;;;;;;5017828;28;20072;-65
2023/01/01 01:28:59;;;;;;;7.60;3.22;;;15.70;73.70;;;;;;5008225;28;20087;-65
2023/01/01 01:31:31;;;;;;;7.57;3.45;;;15.80;73.90;;;;;;5017230;28;20046;-65
2023/01/01 01:33:57;;;;;;;5.00;2.75;;;15.70;74.00;;;;;;5019159;28;20022;-65
2023/01/01 01:36:24;;;;;;;8.10;3.33;;;15.70;74.40;;;;;;5017621;28;20032;-65
2023/01/01 01:38:49;;;;;;;11.90;3.47;;;15.70;74.00;;;;;;4998858;28;20034;-65
2023/01/01 01:41:19;;;;;;;11.20;3.45;;;15.70;73.90;;;;;;5012186;28;20033;-65
2023/01/01 01:43:53;;;;;;;10.13;4.25;;;15.70;74.00;;;;;;5016595;28;20045;-65
2023/01/01 01:46:32;;;;;;;6.35;3.25;;;15.60;73.60;;;;;;5011704;28;20037;-65
2023/01/01 01:49:02;;;;;;;6.70;3.60;;;15.70;73.70;;;;;;5011042;28;20038;-64
2023/01/01 01:51:35;;;;;;;6.97;3.30;;;15.70;73.60;;;;;;5010504;28;20056;-65
2023/01/01 01:54:11;;;;;;;8.70;3.42;;;15.70;73.70;;;;;;5010459;28;20022;-65
2023/01/01 01:56:53;;;;;;;9.55;4.07;;;15.70;73.50;;;;;;5014849;28;20028;-65
2023/01/01 01:59:21;;;;;;;9.63;3.42;;;15.70;73.60;;;;;;5015772;28;20029;-65
2023/01/01 02:01:46;;;;;;;11.68;3.65;;;15.60;73.90;;;;;;5012599;28;20040;-65
2023/01/01 02:04:13;;;;;;;7.63;3.28;;;15.60;73.60;;;;;;5011883;28;20051;-65
2023/01/01 02:06:39;;;;;;;5.75;3.08;;;15.60;73.20;;;;;;5008535;28;20425;-65
2023/01/01 02:09:07;;;;;;;8.50;3.15;;;15.50;73.90;;;;;;5012535;28;20721;-65
2023/01/01 02:11:33;;;;;;;5.15;2.90;;;15.50;73.60;;;;;;5005504;28;20033;-65
2023/01/01 02:14:01;;;;;;;7.15;3.08;;;15.50;73.40;;;;;;5014195;28;20588;-65
2023/01/01 02:16:48;;;;;;;6.40;2.72;;;15.50;73.70;;;;;;5015879;28;20084;-66
2023/01/01 02:19:39;;;;;;;5.07;2.40;;;15.50;73.80;;;;;;5014290;28;20343;-65
2023/01/01 02:22:25;;;;;;;5.38;2.58;;;15.50;73.80;;;;;;5014252;28;20042;-65
2023/01/01 02:25:03;;;;;;;6.50;3.22;;;15.50;72.80;;;;;;5009919;28;20559;-65
2023/01/01 02:28:03;;;;;;;6.95;2.58;;;15.50;73.50;;;;;;5018256;28;20037;-65
2023/01/01 02:30:30;;;;;;;7.20;3.13;;;15.50;73.70;;;;;;4996684;28;20408;-65
2023/01/01 02:33:08;;;;;;;6.55;2.55;;;15.50;73.30;;;;;;5012814;28;20052;-66
2023/01/01 02:35:41;;;;;;;8.23;2.78;;;15.50;73.20;;;;;;5008846;28;20028;-65
2023/01/01 02:38:29;;;;;;;8.10;2.90;;;15.50;74.00;;;;;;5014487;28;20029;-65
2023/01/01 02:41:11;;;;;;;8.88;2.38;;;15.50;73.60;;;;;;5015684;28;20037;-65
2023/01/01 02:43:38;;;;;;;5.82;2.40;;;15.40;72.90;;;;;;5013205;28;20039;-65
2023/01/01 02:46:06;;;;;;;6.35;2.40;;;15.40;73.10;;;;;;5017338;28;20048;-65
2023/01/01 02:48:43;;;;;;;7.00;2.80;;;15.40;73.40;;;;;;5009833;28;20104;-65
2023/01/01 02:51:27;;;;;;;14.07;2.58;;;15.40;73.90;;;;;;5012734;28;20046;-65
2023/01/01 02:54:11;;;;;;;5.30;2.17;;;15.40;73.60;;;;;;5006529;28;20033;-66
2023/01/01 02:57:12;;;;;;;4.85;2.35;;;15.40;73.20;;;;;;5014959;28;20645;-65
2023/01/01 03:00:18;;;;;;;4.57;2.42;;;15.40;73.70;;;;;;5019933;28;20068;-65
2023/01/01 03:02:47;;;;;;;5.03;2.55;;;15.40;74.00;;;;;;4994236;28;20061;-65
2023/01/01 03:05:29;;;;;;;7.03;2.60;;;15.30;73.20;;;;;;5015083;28;20037;-65
2023/01/01 03:08:17;;;;;;;3.83;2.35;;;15.30;73.50;;;;;;5010190;28;20030;-65
2023/01/01 03:11:02;;;;;;;5.65;2.28;;;15.30;74.10;;;;;;5012225;28;20035;-65
2023/01/01 03:13:39;;;;;;;4.35;2.45;;;15.20;74.30;;;;;;5009239;28;20021;-65
2023/01/01 03:16:29;;;;;;;4.78;2.20;;;15.30;74.30;;;;;;5011880;28;20100;-65
2023/01/01 03:19:10;;;;;;;8.30;3.10;;;15.20;74.70;;;;;;5011069;28;20042;-65
2023/01/01 03:22:08;;;;;;;8.02;2.55;;;15.20;73.90;;;;;;5018934;28;20038;-65
2023/01/01 03:24:38;;;;;;;5.22;2.63;;;15.20;74.50;;;;;;5009556;28;20038;-65
2023/01/01 03:27:30;;;;;;;8.73;2.50;;;15.20;73.90;;;;;;5014587;28;20034;-65
2023/01/01 03:30:00;;;;;;;6.65;2.35;;;15.20;74.60;;;;;;5010308;28;20473;-65
2023/01/01 03:35:19;;;;;;;6.10;2.78;;;15.20;74.60;;;;;;5013293;28;20041;-65
2023/01/01 03:37:48;;;;;;;8.70;2.45;;;15.20;74.90;;;;;;5007783;28;20041;-65
2023/01/01 03:40:16;;;;;;;5.53;3.00;;;15.20;75.10;;;;;;5010025;28;20034;-65
2023/01/01 03:42:55;;;;;;;6.88;2.80;;;15.10;74.60;;;;;;5019048;28;20041;-65
2023/01/01 03:45:28;;;;;;;8.98;2.60;;;15.10;74.60;;;;;;5015159;28;20061;-64
2023/01/01 03:47:54;;;;;;;8.85;2.90;;;15.00;75.00;;;;;;5011063;28;20065;-65
2023/01/01 03:50:28;;;;;;;4.55;2.75;;;15.00;74.70;;;;;;5011617;28;20057;-65
2023/01/01 03:53:11;;;;;;;7.32;2.88;;;15.00;75.10;;;;;;5010577;28;20099;-65
2023/01/01 03:55:45;;;;;;;5.05;2.67;;;14.90;75.40;;;;;;5005667;28;20105;-65
2023/01/01 03:58:29;;;;;;;6.63;2.53;;;14.80;75.80;;;;;;5009945;28;20033;-65
2023/01/01 04:01:03;;;;;;;8.02;3.58;;;14.90;75.30;;;;;;5004026;28;20049;-65
2023/01/01 04:03:30;;;;;;;6.32;3.05;;;14.90;75.80;;;;;;5013581;28;20057;-65
2023/01/01 04:05:56;;;;;;;6.32;2.97;;;14.90;75.60;;;;;;5015729;28;20041;-66
2023/01/01 04:08:22;;;;;;;6.13;2.70;;;14.90;75.60;;;;;;5016652;28;20038;-65
2023/01/01 04:10:52;;;;;;;6.15;3.00;;;14.90;75.70;;;;;;5012054;28;20497;-65
2023/01/01 04:13:18;;;;;;;11.85;3.50;;;14.90;75.10;;;;;;5012661;28;20080;-65
2023/01/01 04:15:44;;;;;;;5.18;2.72;;;14.80;75.40;;;;;;5010023;28;20442;-65
2023/01/01 04:18:09;;;;;;;9.90;3.67;;;14.80;75.10;;;;;;5006275;28;20092;-64
2023/01/01 04:20:35;;;;;;;5.97;3.00;;;14.90;75.70;;;;;;5011129;28;20378;-64
2023/01/01 04:23:02;;;;;;;7.30;3.85;;;14.90;75.20;;;;;;5008489;28;20033;-64
2023/01/01 04:25:28;;;;;;;10.75;3.33;;;14.80;75.00;;;;;;5009746;28;20025;-64
2023/01/01 04:27:57;;;;;;;9.73;3.00;;;14.80;75.50;;;;;;5015545;28;20476;-64
2023/01/01 04:30:23;;;;;;;6.35;2.60;;;14.90;75.20;;;;;;5016331;28;20668;-64
2023/01/01 04:32:48;;;;;;;5.97;2.78;;;14.90;74.80;;;;;;5009517;28;20032;-64
2023/01/01 04:35:15;;;;;;;9.13;3.13;;;14.90;74.90;;;;;;5013501;28;20029;-64
2023/01/01 04:37:43;;;;;;;7.65;3.20;;;14.90;75.10;;;;;;5006908;28;20032;-65
2023/01/01 04:40:10;;;;;;;6.03;2.97;;;14.90;75.30;;;;;;5010498;28;20526;-64
2023/01/01 04:42:36;;;;;;;7.93;3.22;;;14.90;75.00;;;;;;4986650;28;20030;-64
2023/01/01 04:45:02;;;;;;;7.95;3.38;;;14.80;75.10;;;;;;5012815;28;20087;-65
2023/01/01 04:47:29;;;;;;;9.82;2.50;;;14.90;74.60;;;;;;5014219;28;20405;-65
2023/01/01 04:49:54;;;;;;;10.20;3.28;;;14.90;74.20;;;;;;5016331;28;20030;-65
2023/01/01 04:52:21;;;;;;;6.95;3.00;;;14.90;75.30;;;;;;5013554;28;20034;-64
2023/01/01 04:54:47;;;;;;;11.23;2.92;;;14.90;74.90;;;;;;5012220;28;20045;-64
2023/01/01 04:57:13;;;;;;;6.60;2.97;;;14.80;74.70;;;;;;5010798;28;20030;-64
2023/01/01 04:59:38;;;;;;;8.95;3.35;;;14.80;75.30;;;;;;5009019;28;20033;-64
2023/01/01 05:02:05;;;;;;;5.88;2.67;;;14.80;75.20;;;;;;4986579;28;20490;-64
2023/01/01 05:04:32;;;;;;;5.22;2.95;;;14.80;75.00;;;;;;5011835;28;20627;-64
2023/01/01 05:06:57;;;;;;;8.93;3.25;;;14.90;75.50;;;;;;5002632;28;20084;-64
2023/01/01 05:09:23;;;;;;;7.32;3.22;;;14.90;75.20;;;;;;5013763;28;20478;-64
2023/01/01 05:11:49;;;;;;;6.03;3.13;;;14.80;75.40;;;;;;5013257;28;20106;-64
2023/01/01 05:14:15;;;;;;;7.72;3.33;;;14.80;74.80;;;;;;5008483;28;20025;-64
2023/01/01 05:16:40;;;;;;;8.93;2.85;;;14.90;75.10;;;;;;5011853;28;20542;-64
2023/01/01 05:19:07;;;;;;;8.05;2.90;;;14.80;74.30;;;;;;5008017;28;20037;-64
2023/01/01 05:21:39;;;;;;;11.43;2.60;;;14.80;74.70;;;;;;5008634;28;20029;-64
2023/01/01 05:24:07;;;;;;;5.80;3.00;;;14.80;74.90;;;;;;5007529;28;20041;-64
2023/01/01 05:26:35;;;;;;;5.63;2.90;;;14.80;74.60;;;;;;5004019;28;20068;-64
2023/01/01 05:29:01;;;;;;;5.70;2.88;;;14.90;74.70;;;;;;5008421;28;20025;-65
2023/01/01 05:31:30;;;;;;;6.03;2.67;;;15.00;74.90;;;;;;5016854;28;20037;-65
2023/01/01 05:33:56;;;;;;;8.68;2.70;;;14.90;74.40;;;;;;5013223;28;20025;-65
2023/01/01 05:36:26;;;;;;;6.63;2.40;;;15.00;74.00;;;;;;4994242;28;20060;-64
2023/01/01 05:38:52;;;;;;;6.07;2.67;;;15.00;74.50;;;;;;5008985;28;20712;-65
2023/01/01 05:41:20;;;;;;;6.20;2.40;;;15.00;74.60;;;;;;5009394;28;20104;-65
2023/01/01 05:43:45;;;;;;;11.00;2.78;;;15.00;74.00;;;;;;4991555;28;20038;-65
2023/01/01 05:46:15;;;;;;;5.93;2.05;;;15.00;74.30;;;;;;5012682;28;20039;-65
2023/01/01 05:48:42;;;;;;;4.90;2.65;;;15.00;74.10;;;;;;5011367;28;20461;-65
2023/01/01 05:51:11;;;;;;;5.35;2.42;;;15.00;74.00;;;;;;5016490;28;20040;-64
2023/01/01 05:53:37;;;;;;;6.78;2.28;;;14.90;73.90;;;;;;5018026;28;20872;-65
2023/01/01 05:56:04;;;;;;;6.55;2.05;;;15.00;74.40;;;;;;5010604;28;20100;-64
2023/01/01 05:58:32;;;;;;;5.65;2.63;;;14.90;73.70;;;;;;5014889;28;20029;-65
2023/01/01 06:01:13;;;;;;;4.78;1.77;;;14.90;74.40;;;;;;5011755;28;20029;-65
2023/01/01 06:03:40;;;;;;;10.52;2.65;;;14.90;74.60;;;;;;5015849;28;20041;-65
2023/01/01 06:06:12;;;;;;;7.57;2.47;;;14.90;74.50;;;;;;5011533;28;20079;-65
2023/01/01 06:08:38;;;;;;;7.15;2.10;;;14.90;74.60;;;;;;5009109;28;20042;-65
2023/01/01 06:11:06;;;;;;;3.33;1.95;;;14.90;74.20;;;;;;5012765;28;20064;-64
2023/01/01 06:13:32;;;;;;;4.25;2.20;;;14.90;74.50;;;;;;5015417;28;20068;-65
2023/01/01 06:15:59;;;;;;;5.65;2.45;;;14.90;74.50;;;;;;5012332;28;20711;-65
2023/01/01 06:18:28;;;;;;;7.07;2.17;;;14.80;75.00;;;;;;5015517;28;20041;-65
2023/01/01 06:20:54;;;;;;;6.32;2.40;;;14.80;74.80;;;;;;5012191;28;20030;-64
2023/01/01 06:23:21;;;;;;;5.47;2.20;;;14.80;74.60;;;;;;5015274;28;20033;-65
2023/01/01 06:25:47;;;;;;;5.75;2.40;;;14.80;74.80;;;;;;5009460;28;20057;-65
2023/01/01 06:28:13;;;;;;;5.03;2.28;;;14.80;75.40;;;;;;5011369;28;20462;-64
2023/01/01 06:30:38;;;;;;;6.47;2.28;;;14.90;75.30;;;;;;5010486;28;20034;-65
2023/01/01 06:33:05;;;;;;;6.18;2.22;;;14.90;74.20;;;;;;5010622;28;20494;-65
2023/01/01 06:35:31;;;;;;;8.20;2.75;;;14.90;74.60;;;;;;5016616;28;20026;-64
2023/01/01 06:38:00;;;;;;;8.80;2.47;;;14.90;74.60;;;;;;5013987;28;20025;-65
2023/01/01 06:40:25;;;;;;;4.68;2.58;;;14.90;74.20;;;;;;5013329;28;20371;-65
2023/01/01 06:42:51;;;;;;;4.25;2.40;;;14.90;73.90;;;;;;5011738;28;20025;-65
2023/01/01 06:45:17;;;;;;;4.20;2.03;;;14.90;74.50;;;;;;5013175;28;20077;-65
2023/01/01 06:47:43;;;;;;;7.78;2.80;;;14.90;74.80;;;;;;5014717;28;20040;-65
2023/01/01 06:50:08;;;;;;;9.77;2.65;;;14.90;74.80;;;;;;5021220;28;20092;-65
2023/01/01 06:52:34;;;;;;;4.75;2.17;;;14.80;74.90;;;;;;4996893;28;20040;-64
2023/01/01 06:55:00;;;;;;;4.15;2.58;;;14.80;75.20;;;;;;5014729;28;20842;-65
2023/01/01 06:57:26;;;;;;;8.30;2.22;;;14.80;75.00;;;;;;5014961;28;20041;-65
2023/01/01 06:59:51;;;;;;;10.52;2.40;;;14.80;75.10;;;;;;5012910;28;20041;-65
2023/01/01 07:02:17;;;;;;;6.85;2.53;;;14.90;74.60;;;;;;5014755;28;20104;-65
2023/01/01 07:04:43;;;;;;;5.85;2.60;;;14.90;74.70;;;;;;5015335;28;20034;-65
2023/01/01 07:07:09;;;;;;;9.18;2.47;;;14.90;75.00;;;;;;5013183;28;20033;-65
2023/01/01 07:09:34;;;;;;;8.85;2.80;;;14.90;74.60;;;;;;5016524;28;20144;-64
2023/01/01 07:12:00;;;;;;;7.75;2.60;;;14.90;74.60;;;;;;5012506;28;20033;-64
2023/01/01 07:14:26;;;;;;;5.55;2.40;;;14.90;74.90;;;;;;5014375;28;20029;-64
2023/01/01 07:16:52;;;;;;;6.35;2.50;;;14.80;75.00;;;;;;5016297;28;20029;-65
2023/01/01 07:19:18;;;;;;;6.28;2.58;;;14.80;75.10;;;;;;5012474;28;20080;-64
2023/01/01 07:21:51;;;;;;;6.22;2.70;;;14.80;75.00;;;;;;5011998;28;20034;-64
2023/01/01 07:24:17;;;;;;;6.80;2.92;;;14.80;75.10;;;;;;5013916;28;20033;-65
2023/01/01 07:26:44;;;;;;;8.18;2.60;;;14.90;75.10;;;;;;5010599;28;20033;-64
2023/01/01 07:29:11;;;;;;;7.05;2.75;;;14.90;75.30;;;;;;5010321;28;20079;-65
2023/01/01 07:31:42;;;;;;;5.28;2.63;;;14.90;75.50;;;;;;5011195;28;20030;-65
2023/01/01 07:34:18;;;;;;;3.50;2.45;;;14.90;75.30;;;;;;5009930;28;20044;-64
2023/01/01 07:36:44;;;;;;;5.45;2.45;;;14.90;75.20;;;;;;5009155;28;20040;-65
2023/01/01 07:39:09;;;;;;;7.57;2.50;;;14.90;75.70;;;;;;5005823;28;20034;-65
2023/01/01 07:41:37;;;;;;;10.60;3.20;;;14.90;75.10;;;;;;5010285;28;20076;-65
2023/01/01 07:44:02;;;;;;;6.00;2.90;;;14.90;75.50;;;;;;5010794;28;20045;-65
2023/01/01 07:46:29;;;;;;;7.82;3.22;;;14.90;75.90;;;;;;5013078;28;20033;-65
2023/01/01 07:48:55;;;;;;;4.90;2.72;;;14.90;75.30;;;;;;5011940;28;20132;-65
2023/01/01 07:51:21;;;;;;;7.35;3.40;;;14.90;75.60;;;;;;5009553;28;20042;-64
2023/01/01 07:53:47;;;;;;;5.88;3.30;;;15.00;74.50;;;;;;5011509;28;20564;-65
2023/01/01 07:56:13;;;;;;;4.60;2.60;;;14.90;75.60;;;;;;5009022;28;20026;-65
2023/01/01 07:58:40;;;;;;;7.55;3.22;;;14.90;75.50;;;;;;5010054;28;20505;-65
2023/01/01 08:01:13;;;;;;;10.75;3.53;;;14.90;75.50;;;;;;5018114;28;20103;-65
2023/01/01 08:03:39;;;;;;;6.40;2.80;;;15.00;75.60;;;;;;5012851;28;20124;-64
2023/01/01 08:06:07;;;;;;;4.78;2.75;;;15.10;75.70;;;;;;5012449;28;20029;-65
2023/01/01 08:08:34;;;;;;;8.48;3.25;;;15.10;75.10;;;;;;5010298;28;20049;-65
2023/01/01 08:11:00;;;;;;;7.45;3.17;;;15.00;75.60;;;;;;5011409;28;20685;-65
2023/01/01 08:13:26;;;;;;;5.22;3.08;;;15.00;76.30;;;;;;5013669;28;20162;-65
2023/01/01 08:15:54;;;;;;;6.45;3.28;;;15.00;75.70;;;;;;5008429;28;20457;-65
2023/01/01 08:18:20;;;;;;;6.63;3.00;;;15.10;76.10;;;;;;5010094;28;20041;-65
2023/01/01 08:20:46;;;;;;;5.13;3.13;;;15.10;75.90;;;;;;5006118;28;20510;-65
2023/01/01 08:23:11;;;;;;;8.70;4.10;;;15.10;75.70;;;;;;5013421;28;20028;-65
2023/01/01 08:25:37;;;;;;;6.32;3.40;;;15.10;75.60;;;;;;5003672;28;20028;-65
2023/01/01 08:28:03;;;;;;;6.15;3.05;;;15.10;75.50;;;;;;5011430;28;20053;-66
2023/01/01 08:30:29;;;;;;;9.57;3.42;;;15.10;75.20;;;;;;5010636;28;20553;-66
2023/01/01 08:32:54;;;;;;;9.80;3.83;;;15.20;76.10;;;;;;5016446;28;20091;-65
2023/01/01 08:35:20;;;;;;;6.85;3.50;;;15.20;75.50;;;;;;5009839;28;20116;-65
2023/01/01 08:37:46;;;;;;;6.45;3.35;;;15.20;75.70;;;;;;5006309;28;20026;-65
2023/01/01 08:40:12;;;;;;;6.03;3.42;;;15.10;75.60;;;;;;5004167;28;20034;-65
2023/01/01 08:42:38;;;;;;;6.20;3.33;;;15.20;75.90;;;;;;5016427;28;20060;-65
2023/01/01 08:45:05;;;;;;;8.75;3.10;;;15.20;75.40;;;;;;5012317;28;20034;-65
2023/01/01 08:47:30;;;;;;;5.65;3.17;;;15.20;75.90;;;;;;5012236;28;20039;-65
2023/01/01 08:49:57;;;;;;;8.63;2.88;;;15.10;76.20;;;;;;5011806;28;20033;-66
2023/01/01 08:52:22;;;;;;;5.97;3.35;;;15.10;76.10;;;;;;5008741;28;20112;-65
2023/01/01 08:54:48;;;;;;;5.72;3.30;;;15.10;76.30;;;;;;4991478;28;20026;-66
2023/01/01 08:57:14;;;;;;;9.18;3.30;;;15.20;76.60;;;;;;5009936;28;20493;-65
2023/01/01 08:59:40;;;;;;;6.97;3.10;;;15.20;76.10;;;;;;5007230;28;20061;-65
2023/01/01 09:02:06;;;;;;;3.97;2.50;;;15.10;76.30;;;;;;5008747;28;20033;-66
2023/01/01 09:04:32;;;;;;;7.20;2.88;;;15.10;76.70;;;;;;5017039;28;20037;-65
2023/01/01 09:06:58;;;;;;;6.10;2.92;;;15.10;76.40;;;;;;5010451;28;20034;-65
2023/01/01 09:09:24;;;;;;;5.88;3.45;;;15.10;76.50;;;;;;5013564;28;20049;-65
2023/01/01 09:11:55;;;;;;;7.70;3.05;;;15.10;76.50;;;;;;5009721;28;20037;-65
2023/01/01 09:14:21;;;;;;;6.22;3.08;;;15.10;77.10;;;;;;5016214;28;20041;-65
2023/01/01 09:16:47;;;;;;;8.13;3.03;;;15.10;76.60;;;;;;5009483;28;20041;-65
2023/01/01 09:19:13;;;;;;;7.43;3.08;;;15.20;77.70;;;;;;5011705;28;20021;-65
2023/01/01 09:21:39;;;;;;;7.25;2.65;;;15.20;77.10;;;;;;5007774;28;20030;-65
2023/01/01 09:24:05;;;;;;;5.35;2.92;;;15.20;76.90;;;;;;5013344;28;20091;-65
2023/01/01 09:26:31;;;;;;;6.47;2.55;;;15.20;76.80;;;;;;5015391;28;20096;-66
2023/01/01 09:28:57;;;;;;;9.20;2.92;;;15.20;77.20;;;;;;5018784;28;20029;-65
2023/01/01 09:31:23;;;;;;;5.93;2.63;;;15.30;76.70;;;;;;5012018;28;20033;-65
2023/01/01 09:33:49;;;;;;;7.22;2.83;;;15.40;77.30;;;;;;4998961;28;20026;-65
2023/01/01 09:36:28;;;;;;;4.72;2.50;;;15.50;76.20;;;;;;5014419;28;20052;-65
2023/01/01 09:38:55;;;;;;;4.65;2.10;;;15.50;76.00;;;;;;5015583;28;20056;-65
2023/01/01 09:41:27;;;;;;;4.50;2.42;;;15.50;76.30;;;;;;5014902;28;20066;-65
2023/01/01 09:43:58;;;;;;;5.45;2.47;;;15.60;76.30;;;;;;5014012;28;20148;-65
2023/01/01 09:46:25;;;;;;;5.55;2.40;;;15.60;76.90;;;;;;5009453;28;20049;-65
2023/01/01 09:49:05;;;;;;;4.97;2.10;;;15.70;76.30;;;;;;5018162;28;20037;-65
2023/01/01 09:51:36;;;;;;;6.78;2.15;;;15.80;75.80;;;;;;5020940;28;20718;-65
2023/01/01 09:54:32;;;;;;;4.10;2.20;;;15.80;75.70;;;;;;5013998;28;20540;-65
2023/01/01 09:57:01;;;;;;;5.18;2.50;;;15.80;76.10;;;;;;4978702;28;20124;-65
2023/01/01 09:59:28;;;;;;;6.28;2.45;;;15.90;75.60;;;;;;5010915;28;20045;-65
2023/01/01 10:02:14;;;;;;;5.38;2.45;;;16.00;75.30;;;;;;4993719;28;20033;-66
2023/01/01 10:05:00;;;;;;;7.00;3.20;;;15.90;75.40;;;;;;5011131;28;20071;-65
2023/01/01 10:07:25;;;;;;;5.93;3.00;;;15.80;75.60;;;;;;5016224;28;20033;-65
2023/01/01 10:10:32;;;;;;;4.13;2.20;;;15.90;75.20;;;;;;5015366;28;20056;-66
2023/01/01 10:13:07;;;;;;;7.32;2.65;;;15.90;75.10;;;;;;4972299;28;20083;-65
2023/01/01 10:15:38;;;;;;;8.32;4.78;;;16.00;74.80;;;;;;5012280;28;20524;-65
2023/01/01 10:18:15;;;;;;;6.43;2.10;;;16.10;74.80;;;;;;5010874;28;20527;-65
2023/01/01 10:20:54;;;;;;;6.80;2.20;;;16.00;74.70;;;;;;5012666;28;20043;-65
2023/01/01 10:23:25;;;;;;;7.80;2.70;;;15.90;74.90;;;;;;5008099;28;20026;-66
2023/01/01 10:25:54;;;;;;;4.95;2.38;;;15.90;75.50;;;;;;5011657;28;20026;-66
2023/01/01 10:28:24;;;;;;;7.32;3.92;;;15.90;75.40;;;;;;5015396;28;20030;-66
2023/01/01 10:30:57;;;;;;;4.03;2.40;;;15.90;75.40;;;;;;5013684;28;20549;-66
2023/01/01 10:33:24;;;;;;;5.97;2.30;;;15.90;75.50;;;;;;5012053;28;20463;-66
2023/01/01 10:35:55;;;;;;;5.35;2.08;;;15.90;75.20;;;;;;5014028;28;20038;-65
2023/01/01 10:38:23;;;;;;;6.55;2.00;;;15.90;75.60;;;;;;5018404;28;20491;-66
2023/01/01 10:40:52;;;;;;;5.03;2.28;;;15.90;75.20;;;;;;5008723;28;20105;-66
2023/01/01 10:43:18;;;;;;;6.63;2.13;;;15.90;75.60;;;;;;4993827;28;20065;-66
2023/01/01 10:45:49;;;;;;;5.88;2.42;;;16.00;75.60;;;;;;5008116;28;20113;-66
2023/01/01 10:48:26;;;;;;;3.45;1.98;;;15.90;75.70;;;;;;5009479;28;20049;-65
2023/01/01 10:50:53;;;;;;;5.20;1.88;;;15.90;75.40;;;;;;5015689;28;20087;-66
2023/01/01 10:53:57;;;;;;;6.32;1.88;;;15.80;75.50;;;;;;5021304;28;20027;-65
2023/01/01 10:56:23;;;;;;;2.90;1.80;;;15.70;76.10;;;;;;4964976;28;20041;-65
2023/01/01 10:58:55;;;;;;;5.10;2.03;;;15.70;76.20;;;;;;5014139;28;20820;-66
2023/01/01 11:01:29;;;;;;;4.35;2.05;;;15.70;76.30;;;;;;5013627;28;20030;-66
2023/01/01 11:04:06;;;;;;;5.88;2.10;;;15.70;76.40;;;;;;5017308;28;20116;-65
2023/01/01 11:06:34;;;;;;;3.10;2.20;;;15.70;75.50;;;;;;5010644;28;20120;-67
2023/01/01 11:09:05;;;;;;;4.32;2.00;;;15.70;76.60;;;;;;5012940;28;20156;-67
2023/01/01 11:11:43;;;;;;;5.55;1.83;;;15.80;76.70;;;;;;5009313;28;20432;-67
2023/01/01 11:14:18;;;;;;;4.53;1.90;;;16.00;74.80;;;;;;5012988;28;20026;-68
2023/01/01 11:16:45;;;;;;;4.80;2.00;;;16.00;75.10;;;;;;5012356;28;20026;-68
2023/01/01 11:19:21;;;;;;;10.80;5.18;;;16.00;75.60;;;;;;5015260;28;20119;-67
2023/01/01 11:21:47;;;;;;;6.53;2.63;;;16.10;75.40;;;;;;5014104;28;20079;-68
2023/01/01 11:24:19;;;;;;;6.82;2.60;;;16.10;74.80;;;;;;5013481;28;20601;-67
2023/01/01 11:26:45;;;;;;;5.35;1.85;;;16.10;75.10;;;;;;5013025;28;20041;-67
2023/01/01 11:29:29;;;;;;;3.45;1.73;;;16.10;75.20;;;;;;4988589;28;20030;-67
2023/01/01 11:31:56;;;;;;;5.57;1.92;;;16.10;74.60;;;;;;5008716;28;20029;-69
2023/01/01 11:34:41;;;;;;;4.03;1.65;;;16.00;75.80;;;;;;4993846;28;20065;-67
2023/01/01 11:37:13;;;;;;;3.50;1.90;;;16.00;75.70;;;;;;5016453;28;20367;-68
2023/01/01 11:39:48;;;;;;;7.60;1.70;;;16.20;75.10;;;;;;5013660;28;20818;-68
2023/01/01 11:42:21;;;;;;;3.60;2.10;;;16.20;74.60;;;;;;5012641;28;20029;-69
2023/01/01 11:45:19;;;;;;;4.70;2.22;;;16.30;74.70;;;;;;5011058;28;20783;-68
2023/01/01 11:47:58;;;;;;;2.70;1.80;;;16.40;74.40;;;;;;4974135;28;20050;-69
2023/01/01 11:50:38;;;;;;;4.80;2.05;;;16.30;74.30;;;;;;4996507;28;20030;-66
2023/01/01 11:53:22;;;;;;;4.10;1.63;;;16.40;74.40;;;;;;5010420;28;20057;-69
2023/01/01 11:56:02;;;;;;;6.30;2.88;;;16.30;74.70;;;;;;5008551;28;20409;-69
2023/01/01 11:58:31;;;;;;;3.63;2.08;;;16.30;74.30;;;;;;5011237;28;20033;-69
2023/01/01 12:01:02;;;;;;;6.25;2.30;;;16.40;74.70;;;;;;5013969;28;20120;-68
2023/01/01 12:04:01;;;;;;;5.43;2.47;;;16.60;74.30;;;;;;5018755;28;20120;-69
2023/01/01 12:06:56;;;;;;;4.32;1.60;;;16.70;74.60;;;;;;5014181;28;20087;-68
2023/01/01 12:09:31;;;;;;;4.07;1.73;;;16.70;72.80;;;;;;4993179;28;20788;-67
2023/01/01 12:12:23;;;;;;;5.13;1.98;;;16.70;73.50;;;;;;5003865;28;20026;-67
2023/01/01 12:15:20;;;;;;;7.75;2.53;;;16.70;74.50;;;;;;5001454;28;20044;-68
2023/01/01 12:18:14;;;;;;;8.88;2.25;;;16.70;73.40;;;;;;5016367;28;20029;-70
2023/01/01 12:21:03;;;;;;;6.00;2.30;;;16.70;73.30;;;;;;5010161;28;20111;-69
2023/01/01 12:23:30;;;;;;;5.35;2.28;;;16.70;73.60;;;;;;5013283;28;20125;-70
2023/01/01 12:26:05;;;;;;;5.72;1.65;;;16.70;72.80;;;;;;5012145;28;20037;-70
2023/01/01 12:28:42;;;;;;;4.00;1.50;;;16.60;73.40;;;;;;5014718;28;20029;-69
2023/01/01 12:31:15;;;;;;;6.40;2.03;;;16.50;73.10;;;;;;5006357;28;20034;-70
2023/01/01 12:33:48;;;;;;;4.30;1.70;;;16.20;74.60;;;;;;4980417;28;20033;-70
2023/01/01 12:36:36;;;;;;;3.30;1.80;;;16.20;75.10;;;;;;5011545;28;20030;-70
2023/01/01 12:39:24;;;;;;;7.70;2.50;;;16.20;74.60;;;;;;4996821;28;20056;-69
2023/01/01 12:41:51;;;;;;;8.85;2.97;;;16.10;74.90;;;;;;5005364;28;20029;-69
2023/01/01 12:44:30;;;;;;;6.45;2.20;;;16.20;75.90;;;;;;5012012;28;20033;-67
2023/01/01 12:47:14;;;;;;;5.70;1.80;;;16.20;74.90;;;;;;5012817;28;20513;-66
2023/01/01 12:50:03;;;;;;;4.40;1.90;;;16.20;75.00;;;;;;5008492;28;20041;-66
2023/01/01 12:53:00;;;;;;;8.50;3.22;;;16.10;75.20;;;;;;5016413;28;20033;-68
2023/01/01 12:55:28;;;;;;;5.43;2.75;;;16.20;75.50;;;;;;5015513;28;20029;-68
2023/01/01 12:58:25;;;;;;;5.60;2.33;;;16.30;75.10;;;;;;5014119;28;20092;-67
2023/01/01 13:00:57;;;;;;;7.15;2.10;;;16.30;75.10;;;;;;5010379;28;20042;-66
2023/01/01 13:03:30;;;;;;;4.82;1.88;;;16.20;75.00;;;;;;5015073;28;20112;-65
2023/01/01 13:05:57;;;;;;;4.07;2.00;;;16.10;75.40;;;;;;5014486;28;20113;-66
2023/01/01 13:08:23;;;;;;;5.57;2.03;;;16.20;76.20;;;;;;5013499;28;20431;-66